Time;durP1;ratioP1;P1;durP2;ratioP2;P2;SDS_P1;SDS_P2;PMS_P1;PMS_P2;Temp;Humidity;BMP_temperature;BMP_pressure;BME280_temperature;BME280_humidity;BME280_pressure;Samples;Min_cycle;Max_cycle;Signal;HPM_P1;HPM_P2
2023/03/15 00:02:00;;;;;;;;;;;;;;;10.87;100.00;99595.56;4941790;29;19922;-82
2023/03/15 00:04:28;;;;;;;;;;;;;;;10.99;100.00;99605.97;4954398;29;20309;-83
2023/03/15 00:06:55;;;;;;;;;;;;;;;11.06;100.00;99608.31;4954369;29;20377;-83
2023/03/15 00:09:23;;;;;;;;;;;;;;;10.99;100.00;99615.03;4952908;29;19922;-83
2023/03/15 00:11:53;;;;;;;;;;;;;;;10.91;100.00;99623.97;4954450;29;19923;-82
2023/03/15 00:14:21;;;;;;;;;;;;;;;10.79;100.00;99629.13;4954367;29;19946;-82
2023/03/15 00:16:49;;;;;;;;;;;;;;;10.76;100.00;99627.81;4954169;29;19945;-82
2023/03/15 00:19:16;;;;;;;;;;;;;;;10.71;100.00;99634.19;4953942;29;20384;-82
2023/03/15 00:21:44;;;;;;;;;;;;;;;10.65;100.00;99632.66;4954418;29;19922;-82
2023/03/15 00:24:12;;;;;;;;;;;;;;;10.65;100.00;99640.09;4971653;28;19929;-82
2023/03/15 00:26:39;;;;;;;;;;;;;;;10.65;100.00;99637.34;4958526;28;19929;-82
2023/03/15 00:29:08;;;;;;;;;;;;;;;10.65;100.00;99640.09;4959869;28;20324;-82
2023/03/15 00:31:35;;;;;;;;;;;;;;;10.69;100.00;99643.81;4975868;28;19932;-82
2023/03/15 00:34:03;;;;;;;;;;;;;;;10.61;100.00;99646.16;4960028;28;19925;-82
2023/03/15 00:36:31;;;;;;;;;;;;;;;10.51;100.00;99651.00;4976984;28;19936;-83
2023/03/15 00:38:58;;;;;;;;;;;;;;;10.47;100.00;99651.59;4976745;28;20399;-83
2023/03/15 00:41:26;;;;;;;;;;;;;;;10.38;100.00;99663.50;4959594;28;19937;-83
2023/03/15 00:43:53;;;;;;;;;;;;;;;10.26;100.00;99667.53;4959699;28;19926;-82
2023/03/15 00:46:21;;;;;;;;;;;;;;;10.26;100.00;99661.28;4976820;28;19933;-82
2023/03/15 00:48:50;;;;;;;;;;;;;;;10.22;100.00;99675.53;4976800;28;20296;-82
2023/03/15 00:51:20;;;;;;;;;;;;;;;10.28;100.00;99669.97;4976839;28;19929;-82
2023/03/15 00:53:48;;;;;;;;;;;;;;;10.31;100.00;99675.66;4959102;28;19922;-82
2023/03/15 00:56:17;;;;;;;;;;;;;;;10.31;100.00;99675.66;4959587;28;19922;-82
2023/03/15 00:58:45;;;;;;;;;;;;;;;10.26;100.00;99677.69;4959318;28;19926;-82
2023/03/15 01:01:16;;;;;;;;;;;;;;;10.17;100.00;99681.09;4958810;28;19926;-82
2023/03/15 01:03:44;;;;;;;;;;;;;;;10.11;100.00;99676.81;4976669;28;19926;-82
2023/03/15 01:06:13;;;;;;;;;;;;;;;10.07;100.00;99681.28;4976488;28;19922;-82
2023/03/15 01:08:41;;;;;;;;;;;;;;;10.03;100.00;99682.97;4959391;28;19929;-82
2023/03/15 01:11:13;;;;;;;;;;;;;;;9.99;100.00;99681.94;4959287;28;19922;-82
2023/03/15 01:13:41;;;;;;;;;;;;;;;9.95;100.00;99676.25;4959246;28;20304;-82
2023/03/15 01:16:10;;;;;;;;;;;;;;;9.89;100.00;99674.72;4957727;28;19922;-82
2023/03/15 01:18:38;;;;;;;;;;;;;;;9.91;100.00;99678.78;4958237;28;20301;-83
2023/03/15 01:21:07;;;;;;;;;;;;;;;10.06;100.00;99672.25;4976338;28;19933;-82
2023/03/15 01:23:34;;;;;;;;;;;;;;;10.06;100.00;99675.00;4946827;29;19930;-82
2023/03/15 01:26:03;;;;;;;;;;;;;;;9.98;100.00;99683.06;4956802;29;19929;-83
2023/03/15 01:28:31;;;;;;;;;;;;;;;9.97;100.00;99681.44;4956976;29;19930;-83
2023/03/15 01:30:59;;;;;;;;;;;;;;;9.93;100.00;99683.97;4956822;29;19933;-83
2023/03/15 01:33:27;;;;;;;;;;;;;;;9.93;100.00;99673.03;4939679;29;19953;-83
2023/03/15 01:35:59;;;;;;;;;;;;;;;9.89;100.00;99675.53;4956577;28;19927;-83
2023/03/15 01:38:27;;;;;;;;;;;;;;;9.76;100.00;99681.75;4939319;29;19926;-82
2023/03/15 01:40:55;;;;;;;;;;;;;;;9.74;100.00;99686.69;4939498;29;19922;-83
2023/03/15 01:43:24;;;;;;;;;;;;;;;9.80;100.00;99683.59;4956543;29;20464;-82
2023/03/15 01:46:06;;;;;;;;;;;;;;;9.72;100.00;99688.94;4939370;29;20385;-83
2023/03/15 01:48:43;;;;;;;;;;;;;;;9.64;100.00;99704.84;4939419;29;19922;-83
2023/03/15 01:51:22;;;;;;;;;;;;;;;9.51;100.00;99698.22;4939257;29;20374;-82
2023/03/15 01:53:55;;;;;;;;;;;;;;;9.41;100.00;99692.88;4939243;29;20263;-83
2023/03/15 01:56:23;;;;;;;;;;;;;;;9.38;100.00;99707.13;4939310;29;19926;-83
2023/03/15 01:58:51;;;;;;;;;;;;;;;9.34;100.00;99704.16;4939139;29;19926;-83
2023/03/15 02:01:21;;;;;;;;;;;;;;;9.28;100.00;99695.25;4937913;29;19922;-83
2023/03/15 02:03:54;;;;;;;;;;;;;;;9.17;100.00;99698.38;4939043;29;19926;-82
2023/03/15 02:06:25;;;;;;;;;;;;;;;9.06;100.00;99684.06;4938831;29;20294;-83
2023/03/15 02:09:00;;;;;;;;;;;;;;;9.11;100.00;99689.44;4939084;29;19938;-83
2023/03/15 02:11:33;;;;;;;;;;;;;;;9.08;100.00;99690.03;4951868;29;20408;-83
2023/03/15 02:14:02;;;;;;;;;;;;;;;8.86;100.00;99684.00;4955993;29;19933;-83
2023/03/15 02:16:30;;;;;;;;;;;;;;;9.00;100.00;99688.78;4938683;29;19922;-82
2023/03/15 02:19:03;;;;;;;;;;;;;;;9.03;100.00;99688.19;4937864;29;19926;-82
2023/03/15 02:21:35;;;;;;;;;;;;;;;9.01;100.00;99683.00;4955332;29;19922;-82
2023/03/15 02:24:21;;;;;;;;;;;;;;;9.01;100.00;99690.41;4955400;29;19922;-83
2023/03/15 02:26:53;;;;;;;;;;;;;;;9.03;100.00;99688.19;4918236;29;20002;-82
2023/03/15 02:29:22;;;;;;;;;;;;;;;8.99;100.00;99687.13;4955537;29;19922;-83
2023/03/15 02:31:50;;;;;;;;;;;;;;;8.86;100.00;99684.00;4955214;29;20301;-83
2023/03/15 02:34:18;;;;;;;;;;;;;;;8.80;100.00;99682.44;4955456;29;20300;-82
2023/03/15 02:36:47;;;;;;;;;;;;;;;8.73;100.00;99674.63;4955498;29;19926;-83
2023/03/15 02:39:16;;;;;;;;;;;;;;;8.73;100.00;99676.50;4936274;29;19992;-82
2023/03/15 02:41:47;;;;;;;;;;;;;;;8.81;100.00;99686.78;4919386;29;19934;-83
2023/03/15 02:44:18;;;;;;;;;;;;;;;8.78;100.00;99678.38;4936344;29;19926;-82
2023/03/15 02:46:48;;;;;;;;;;;;;;;8.62;100.00;99688.63;4936182;29;19929;-82
2023/03/15 02:49:22;;;;;;;;;;;;;;;8.58;100.00;99685.69;4905322;29;19934;-82
2023/03/15 02:51:50;;;;;;;;;;;;;;;8.60;100.00;99687.00;4938163;29;19926;-82
2023/03/15 02:54:18;;;;;;;;;;;;;;;8.68;100.00;99687.47;4955613;29;19930;-83
2023/03/15 02:56:45;;;;;;;;;;;;;;;8.65;100.00;99685.34;4955580;29;19926;-82
2023/03/15 02:59:14;;;;;;;;;;;;;;;8.67;100.00;99699.50;4938479;29;19930;-83
2023/03/15 03:01:44;;;;;;;;;;;;;;;8.54;100.00;99695.53;4955121;29;19945;-83
2023/03/15 03:04:12;;;;;;;;;;;;;;;8.43;100.00;99698.34;4937351;29;19923;-82
2023/03/15 03:06:42;;;;;;;;;;;;;;;8.56;100.00;99699.59;4954939;29;19929;-83
2023/03/15 03:09:13;;;;;;;;;;;;;;;8.63;100.00;99701.16;4953903;29;19922;-82
2023/03/15 03:11:42;;;;;;;;;;;;;;;8.59;100.00;99712.66;4934860;29;19922;-82
2023/03/15 03:14:12;;;;;;;;;;;;;;;8.59;100.00;99707.22;4935677;29;19929;-83
2023/03/15 03:16:41;;;;;;;;;;;;;;;8.69;100.00;99708.19;4937938;29;19933;-83
2023/03/15 03:19:11;;;;;;;;;;;;;;;8.73;100.00;99711.97;4954900;29;19927;-83
2023/03/15 03:21:44;;;;;;;;;;;;;;;8.70;100.00;99718.03;4938076;29;20293;-83
2023/03/15 03:24:15;;;;;;;;;;;;;;;8.60;100.00;99714.28;4937295;29;19945;-82
2023/03/15 03:26:44;;;;;;;;;;;;;;;8.65;100.00;99718.88;4937692;29;19922;-83
2023/03/15 03:29:15;;;;;;;;;;;;;;;8.68;100.00;99728.41;4937806;29;20321;-83
2023/03/15 03:31:46;;;;;;;;;;;;;;;8.64;100.00;99727.38;4937658;29;20309;-83
2023/03/15 03:34:14;;;;;;;;;;;;;;;8.53;100.00;99716.53;4937287;29;19922;-83
2023/03/15 03:36:42;;;;;;;;;;;;;;;8.52;100.00;99723.09;4954431;29;19929;-83
2023/03/15 03:39:13;;;;;;;;;;;;;;;8.61;100.00;99734.19;4933009;29;20381;-83
2023/03/15 03:41:42;;;;;;;;;;;;;;;8.58;100.00;99738.31;4937299;29;19945;-83
2023/03/15 03:44:11;;;;;;;;;;;;;;;8.49;100.00;99745.44;4933897;29;19926;-83
2023/03/15 03:46:41;;;;;;;;;;;;;;;8.49;100.00;99750.91;4934030;29;19923;-83
2023/03/15 03:49:09;;;;;;;;;;;;;;;8.58;100.00;99751.94;4918499;29;19930;-83
2023/03/15 03:51:36;;;;;;;;;;;;;;;8.57;100.00;99761.22;4945551;29;19922;-83
2023/03/15 03:54:04;;;;;;;;;;;;;;;8.53;100.00;99773.81;4954289;29;19929;-83
2023/03/15 03:56:32;;;;;;;;;;;;;;;8.45;100.00;99763.47;4920995;29;19922;-83
2023/03/15 03:59:00;;;;;;;;;;;;;;;8.46;100.00;99763.19;4940509;29;20310;-83
2023/03/15 04:01:41;;;;;;;;;;;;;;;8.29;100.00;99757.34;4932072;29;19922;-83
2023/03/15 04:04:13;;;;;;;;;;;;;;;8.29;100.00;99763.63;4940979;29;19922;-83
2023/03/15 04:06:44;;;;;;;;;;;;;;;8.28;100.00;99762.00;4940659;29;19945;-83
2023/03/15 04:09:15;;;;;;;;;;;;;;;8.27;100.00;99765.78;4941365;29;20289;-83
2023/03/15 04:11:45;;;;;;;;;;;;;;;8.27;100.00;99770.44;4940617;29;19922;-82
2023/03/15 04:14:15;;;;;;;;;;;;;;;8.29;100.00;99768.25;4937593;29;19977;-83
2023/03/15 04:16:44;;;;;;;;;;;;;;;8.27;100.00;99757.63;4925523;29;19926;-83
2023/03/15 04:19:15;;;;;;;;;;;;;;;8.22;100.00;99765.84;4944985;29;19933;-83
2023/03/15 04:21:46;;;;;;;;;;;;;;;7.99;100.00;99762.75;4938889;29;19927;-83
2023/03/15 04:24:34;;;;;;;;;;;;;;;8.19;100.00;99774.59;4925315;29;19923;-82
2023/03/15 04:27:08;;;;;;;;;;;;;;;8.27;100.00;99770.44;4921965;29;19934;-83
2023/03/15 04:29:54;;;;;;;;;;;;;;;8.39;100.00;99761.88;4939911;28;19922;-83
2023/03/15 04:32:41;;;;;;;;;;;;;;;8.55;100.00;99770.81;4977120;28;19926;-83
2023/03/15 04:35:19;;;;;;;;;;;;;;;8.56;100.00;99766.97;4977032;28;20380;-83
2023/03/15 04:37:57;;;;;;;;;;;;;;;8.49;100.00;99769.19;4959738;28;19922;-83
2023/03/15 04:40:54;;;;;;;;;;;;;;;8.51;100.00;99775.97;4955545;28;19933;-83
2023/03/15 04:43:35;;;;;;;;;;;;;;;8.44;100.00;99783.66;4975793;28;20261;-83
2023/03/15 04:46:24;;;;;;;;;;;;;;;8.10;100.00;99792.63;4959747;28;19929;-83
2023/03/15 04:49:10;;;;;;;;;;;;;;;7.82;100.00;99793.06;4977143;28;19925;-83
2023/03/15 04:51:54;;;;;;;;;;;;;;;7.88;100.00;99793.88;4959662;28;19922;-83
2023/03/15 04:54:40;;;;;;;;;;;;;;;7.80;100.00;99785.19;4976872;28;19928;-83
2023/03/15 04:57:37;;;;;;;;;;;;;;;7.88;100.00;99791.13;4907621;28;19946;-83
2023/03/15 05:00:34;;;;;;;;;;;;;;;7.85;100.00;99800.69;4959421;28;19926;-83
2023/03/15 05:03:22;;;;;;;;;;;;;;;7.87;100.00;99803.13;4976725;28;20278;-83
2023/03/15 05:05:53;;;;;;;;;;;;;;;7.85;100.00;99802.59;4977025;28;20679;-83
2023/03/15 05:08:56;;;;;;;;;;;;;;;7.77;100.00;99807.53;4861206;29;19924;-83
2023/03/15 05:11:45;;;;;;;;;;;;;;;7.77;100.00;99807.53;4915458;29;19946;-83
2023/03/15 05:14:31;;;;;;;;;;;;;;;7.74;100.00;99824.44;4950867;29;19927;-83
2023/03/15 05:17:14;;;;;;;;;;;;;;;7.85;100.00;99827.94;4957079;29;19927;-83
2023/03/15 05:20:00;;;;;;;;;;;;;;;8.04;100.00;99833.56;4957087;29;19930;-89
2023/03/15 05:22:55;;;;;;;;;;;;;;;8.55;100.00;99831.59;4934643;29;20286;-85
2023/03/15 05:25:42;;;;;;;;;;;;;;;8.52;100.00;99843.09;4965352;28;19929;-84
2023/03/15 05:28:38;;;;;;;;;;;;;;;8.27;100.00;99828.50;4959534;28;19933;-84
2023/03/15 05:31:10;;;;;;;;;;;;;;;8.26;100.00;99831.53;4938868;29;19934;-84
2023/03/15 05:33:56;;;;;;;;;;;;;;;8.21;100.00;99854.16;4958619;28;20238;-84
2023/03/15 05:36:44;;;;;;;;;;;;;;;8.04;100.00;99858.09;4966700;28;19929;-84
2023/03/15 05:39:15;;;;;;;;;;;;;;;7.93;100.00;99868.19;4922985;29;19945;-84
2023/03/15 05:41:58;;;;;;;;;;;;;;;7.59;100.00;99865.34;4957224;29;20317;-84
2023/03/15 05:44:44;;;;;;;;;;;;;;;7.53;100.00;99859.91;4957011;29;19929;-84
2023/03/15 05:47:18;;;;;;;;;;;;;;;7.47;100.00;99868.34;4955891;29;19922;-85
2023/03/15 05:50:05;;;;;;;;;;;;;;;7.43;100.00;99880.91;4956820;29;20385;-85
2023/03/15 05:52:45;;;;;;;;;;;;;;;7.55;100.00;99883.31;4956915;29;19922;-85
2023/03/15 05:55:26;;;;;;;;;;;;;;;7.37;100.00;99888.25;4956459;29;19934;-84
2023/03/15 05:58:29;;;;;;;;;;;;;;;7.42;100.00;99892.91;4895656;29;20295;-83
2023/03/15 06:01:16;;;;;;;;;;;;;;;7.55;100.00;99891.50;4951676;29;19922;-81
2023/03/15 06:04:02;;;;;;;;;;;;;;;7.82;100.00;99891.13;4952799;28;19926;-83
2023/03/15 06:06:31;;;;;;;;;;;;;;;7.96;100.00;99899.53;4933556;29;20396;-83
2023/03/15 06:09:02;;;;;;;;;;;;;;;8.10;100.00;99896.19;4938172;29;19930;-83
2023/03/15 06:11:29;;;;;;;;;;;;;;;8.15;100.00;99905.16;4937472;29;19929;-84
2023/03/15 06:13:58;;;;;;;;;;;;;;;8.29;100.00;99916.28;4939032;29;19922;-82
2023/03/15 06:16:41;;;;;;;;;;;;;;;8.36;100.00;99932.31;4954898;28;20749;-82
2023/03/15 06:19:08;;;;;;;;;;;;;;;8.27;100.00;99937.53;4937856;29;20328;-82
2023/03/15 06:21:36;;;;;;;;;;;;;;;8.23;100.00;99938.38;4936000;29;19934;-84
2023/03/15 06:24:10;;;;;;;;;;;;;;;8.36;100.00;99954.13;4918548;29;19922;-88
2023/03/15 06:26:38;;;;;;;;;;;;;;;8.46;100.00;99943.16;4915410;29;19934;-81
2023/03/15 06:29:06;;;;;;;;;;;;;;;8.39;100.00;99956.28;4930462;29;19923;-84
2023/03/15 06:31:34;;;;;;;;;;;;;;;8.25;100.00;99953.34;4954182;29;19991;-84
2023/03/15 06:34:04;;;;;;;;;;;;;;;8.55;100.00;99951.59;4954019;29;20373;-84
2023/03/15 06:36:33;;;;;;;;;;;;;;;8.89;100.00;99954.66;4942339;29;19930;-81
2023/03/15 06:39:01;;;;;;;;;;;;;;;9.04;100.00;99957.25;4935308;29;20483;-82
2023/03/15 06:41:31;;;;;;;;;;;;;;;9.52;100.00;99950.28;4932645;29;19933;-82
2023/03/15 06:44:14;;;;;;;;;;;;;;;9.84;97.69;99957.09;5172097;27;19960;-84
2023/03/15 06:46:41;;;;;;;;;;;;;;;9.92;97.27;99970.09;5118899;27;19923;-83
2023/03/15 06:49:09;;;;;;;;;;;;;;;10.15;94.55;99967.66;5118366;27;19923;-83
2023/03/15 06:51:37;;;;;;;;;;;;;;;10.40;93.87;99973.13;5118847;27;19923;-83
2023/03/15 06:54:05;;;;;;;;;;;;;;;10.21;93.45;99974.69;5118964;27;20303;-83
2023/03/15 06:56:36;;;;;;;;;;;;;;;10.43;93.82;99978.84;5135749;27;19923;-83
2023/03/15 06:59:04;;;;;;;;;;;;;;;10.91;92.62;99981.72;5118576;27;19927;-84
2023/03/15 07:01:32;;;;;;;;;;;;;;;10.94;91.42;99984.69;5135856;27;19927;-83
2023/03/15 07:04:00;;;;;;;;;;;;;;;10.51;92.54;99980.09;5136109;27;20331;-83
2023/03/15 07:06:28;;;;;;;;;;;;;;;10.55;94.50;99977.59;5135309;27;19923;-83
2023/03/15 07:08:55;;;;;;;;;;;;;;;10.45;93.54;99976.63;5135335;27;19930;-83
2023/03/15 07:11:23;;;;;;;;;;;;;;;11.00;91.30;99979.97;5117480;27;19923;-83
2023/03/15 07:13:51;;;;;;;;;;;;;;;11.67;87.32;99981.56;5118511;27;20252;-83
2023/03/15 07:16:19;;;;;;;;;;;;;;;11.89;86.87;99979.25;5153129;27;19930;-83
2023/03/15 07:18:47;;;;;;;;;;;;;;;12.16;86.73;99981.22;5118362;27;19923;-82
2023/03/15 07:21:15;;;;;;;;;;;;;;;12.33;85.84;99990.78;5118457;27;20288;-82
2023/03/15 07:23:43;;;;;;;;;;;;;;;12.26;84.65;99991.16;5135264;27;19953;-83
2023/03/15 07:26:11;;;;;;;;;;;;;;;12.48;85.69;99997.88;5135313;27;19926;-82
2023/03/15 07:28:38;;;;;;;;;;;;;;;12.77;83.10;100005.72;5153012;27;19934;-83
2023/03/15 07:31:06;;;;;;;;;;;;;;;12.59;84.71;100004.75;5118325;27;19938;-83
2023/03/15 07:33:35;;;;;;;;;;;;;;;12.57;85.31;100004.25;5118122;27;19927;-83
2023/03/15 07:36:03;;;;;;;;;;;;;;;12.97;86.20;100008.31;5117851;27;19926;-83
2023/03/15 07:38:31;;;;;;;;;;;;;;;13.17;87.78;100015.28;5134858;27;19930;-83
2023/03/15 07:41:03;;;;;;;;;;;;;;;13.40;84.85;100021.56;5118437;27;19930;-83
2023/03/15 07:43:31;;;;;;;;;;;;;;;13.73;85.34;100025.22;5134702;27;19927;-82
2023/03/15 07:46:11;;;;;;;;;;;;;;;14.18;84.78;100024.28;5119406;27;20380;-83
2023/03/15 07:48:40;;;;;;;;;;;;;;;14.36;83.10;100039.72;5117852;27;19930;-83
2023/03/15 07:51:07;;;;;;;;;;;;;;;14.86;82.29;100046.00;5118476;27;19927;-83
2023/03/15 07:53:35;;;;;;;;;;;;;;;15.26;80.28;100050.56;5116245;27;20280;-83
2023/03/15 07:56:03;;;;;;;;;;;;;;;15.45;77.94;100049.44;5103803;27;19938;-83
2023/03/15 07:58:31;;;;;;;;;;;;;;;15.33;80.47;100058.34;5120873;27;20502;-82
2023/03/15 08:01:00;;;;;;;;;;;;;;;15.82;78.89;100063.66;5103994;27;19927;-82
2023/03/15 08:03:28;;;;;;;;;;;;;;;15.64;79.49;100065.63;5120635;27;19923;-82
2023/03/15 08:05:56;;;;;;;;;;;;;;;15.62;79.55;100075.34;5103916;27;19930;-82
2023/03/15 08:08:25;;;;;;;;;;;;;;;16.20;78.19;100078.66;5103739;27;19930;-82
2023/03/15 08:10:54;;;;;;;;;;;;;;;16.20;77.83;100080.59;5103695;27;19927;-81
2023/03/15 08:13:23;;;;;;;;;;;;;;;16.98;76.37;100077.75;5103779;27;20368;-83
2023/03/15 08:15:51;;;;;;;;;;;;;;;17.06;71.69;100083.25;5103765;27;20055;-82
2023/03/15 08:18:18;;;;;;;;;;;;;;;17.26;69.25;100080.81;5103512;27;20289;-82
2023/03/15 08:20:47;;;;;;;;;;;;;;;17.22;67.81;100087.38;5104069;27;19934;-83
2023/03/15 08:23:15;;;;;;;;;;;;;;;17.16;67.75;100090.34;5120336;27;19930;-82
2023/03/15 08:25:43;;;;;;;;;;;;;;;17.85;62.87;100098.34;5103571;27;19923;-82
2023/03/15 08:28:11;;;;;;;;;;;;;;;17.76;64.53;100091.28;5120215;27;19923;-82
2023/03/15 08:30:39;;;;;;;;;;;;;;;17.97;61.57;100100.34;5103655;27;19923;-83
2023/03/15 08:33:07;;;;;;;;;;;;;;;18.03;61.66;100102.91;5120332;27;19927;-83
2023/03/15 08:35:35;;;;;;;;;;;;;;;18.33;57.87;100100.00;5120229;27;19934;-83
2023/03/15 08:38:03;;;;;;;;;;;;;;;17.61;60.63;100110.16;5103488;27;20293;-84
2023/03/15 08:40:31;;;;;;;;;;;;;;;16.61;61.99;100105.91;5103250;27;19927;-83
2023/03/15 08:42:59;;;;;;;;;;;;;;;16.21;63.80;100115.34;5102850;27;19923;-83
2023/03/15 08:45:27;;;;;;;;;;;;;;;15.63;66.62;100115.63;5103205;27;19923;-83
2023/03/15 08:47:55;;;;;;;;;;;;;;;15.15;66.33;100113.47;5103124;27;19930;-84
2023/03/15 08:50:24;;;;;;;;;;;;;;;14.75;69.30;100128.16;5119742;27;19923;-83
2023/03/15 08:52:52;;;;;;;;;;;;;;;14.48;73.57;100129.94;5119737;27;20327;-83
2023/03/15 08:55:20;;;;;;;;;;;;;;;14.33;74.11;100138.66;5103388;27;19923;-84
2023/03/15 08:57:48;;;;;;;;;;;;;;;14.21;74.10;100134.53;5102749;27;19927;-84
2023/03/15 09:00:19;;;;;;;;;;;;;;;14.16;74.39;100144.84;5102921;27;19946;-83
2023/03/15 09:02:48;;;;;;;;;;;;;;;14.18;74.28;100159.13;5119643;27;20297;-83
2023/03/15 09:05:16;;;;;;;;;;;;;;;13.98;76.41;100156.56;5119122;27;19934;-84
2023/03/15 09:07:45;;;;;;;;;;;;;;;13.97;75.95;100159.63;5118944;27;19937;-84
2023/03/15 09:10:13;;;;;;;;;;;;;;;13.77;78.63;100155.44;5119390;27;19930;-83
2023/03/15 09:12:42;;;;;;;;;;;;;;;13.65;79.31;100165.06;5155131;27;19929;-84
2023/03/15 09:15:10;;;;;;;;;;;;;;;13.53;79.85;100173.84;5155157;27;20407;-84
2023/03/15 09:17:38;;;;;;;;;;;;;;;13.82;78.22;100169.06;5154822;27;19923;-83
2023/03/15 09:20:13;;;;;;;;;;;;;;;13.82;77.56;100174.56;5154996;27;19930;-83
2023/03/15 09:22:41;;;;;;;;;;;;;;;13.94;78.70;100182.28;5155041;27;19927;-83
2023/03/15 09:25:09;;;;;;;;;;;;;;;13.84;81.21;100184.13;5135758;27;20408;-83
2023/03/15 09:27:37;;;;;;;;;;;;;;;13.85;79.84;100193.22;5154756;27;19927;-84
2023/03/15 09:30:05;;;;;;;;;;;;;;;13.84;80.70;100197.09;5154867;27;19934;-83
2023/03/15 09:32:36;;;;;;;;;;;;;;;13.73;79.32;100195.69;5154725;27;19930;-83
2023/03/15 09:35:05;;;;;;;;;;;;;;;13.85;80.61;100206.97;5136220;27;19930;-84
2023/03/15 09:37:32;;;;;;;;;;;;;;;14.01;77.09;100206.56;5154520;27;19923;-84
2023/03/15 09:40:00;;;;;;;;;;;;;;;14.20;76.09;100209.97;5154616;27;20278;-84
2023/03/15 09:42:47;;;;;;;;;;;;;;;14.68;73.86;100220.59;5154890;27;20403;-84
2023/03/15 09:45:17;;;;;;;;;;;;;;;15.15;70.79;100233.94;5155069;27;19950;-84
2023/03/15 09:47:49;;;;;;;;;;;;;;;15.15;70.53;100233.94;5155139;27;20377;-84
2023/03/15 09:50:24;;;;;;;;;;;;;;;15.29;68.07;100237.38;5155018;27;19923;-84
2023/03/15 09:52:59;;;;;;;;;;;;;;;15.23;69.58;100243.34;5154924;27;19923;-83
2023/03/15 09:55:28;;;;;;;;;;;;;;;15.55;68.76;100244.09;5154924;27;19923;-84
2023/03/15 09:58:03;;;;;;;;;;;;;;;15.78;69.28;100247.50;5154558;27;19923;-84
2023/03/15 10:00:52;;;;;;;;;;;;;;;15.81;67.51;100255.16;5136281;27;19934;-84
2023/03/15 10:03:23;;;;;;;;;;;;;;;15.74;55.14;100254.81;5154657;27;19939;-85
2023/03/15 10:05:54;;;;;;;;;;;;;;;16.04;47.16;100268.00;5154770;27;20300;-85
2023/03/15 10:08:23;;;;;;;;;;;;;;;16.78;41.16;100273.59;5136249;27;19923;-85
2023/03/15 10:11:06;;;;;;;;;;;;;;;17.03;40.79;100273.84;5154773;27;19927;-84
2023/03/15 10:13:37;;;;;;;;;;;;;;;17.55;43.14;100281.06;5136204;27;19927;-84
2023/03/15 10:16:08;;;;;;;;;;;;;;;17.92;40.25;100286.03;5154488;27;19927;-85
2023/03/15 10:18:35;;;;;;;;;;;;;;;17.62;38.63;100280.53;5154081;27;19945;-86
2023/03/15 10:21:05;;;;;;;;;;;;;;;17.62;39.43;100286.06;5135891;27;19923;-86
2023/03/15 10:23:45;;;;;;;;;;;;;;;18.03;41.50;100277.31;5154204;27;19924;-85
2023/03/15 10:26:14;;;;;;;;;;;;;;;18.18;38.91;100271.19;5154365;27;19934;-85
2023/03/15 10:28:42;;;;;;;;;;;;;;;17.82;37.46;100287.25;5135864;27;20297;-87
2023/03/15 10:31:14;;;;;;;;;;;;;;;17.71;38.28;100286.81;5154252;27;19934;-87
2023/03/15 10:33:53;;;;;;;;;;;;;;;17.37;37.21;100290.59;5137329;27;19930;-84
2023/03/15 10:36:21;;;;;;;;;;;;;;;16.95;38.28;100277.44;5135633;27;19946;-85
2023/03/15 10:38:49;;;;;;;;;;;;;;;16.73;42.94;100282.88;5154058;27;20300;-87
2023/03/15 10:41:37;;;;;;;;;;;;;;;16.38;45.55;100282.94;5154142;27;19934;-86
2023/03/15 10:44:24;;;;;;;;;;;;;;;15.87;42.24;100290.88;5131443;28;19927;-87
2023/03/15 10:47:06;;;;;;;;;;;;;;;15.67;40.62;100282.88;5133317;28;19931;-86
2023/03/15 10:49:55;;;;;;;;;;;;;;;16.24;41.28;100294.16;5133355;28;19931;-86
2023/03/15 10:52:34;;;;;;;;;;;;;;;16.78;44.34;100290.16;5133368;28;19932;-86
2023/03/15 10:55:16;;;;;;;;;;;;;;;16.38;46.04;100293.97;5132050;28;19927;-87
2023/03/15 10:57:51;;;;;;;;;;;;;;;16.53;46.65;100309.22;5133069;28;20381;-86
2023/03/15 11:00:29;;;;;;;;;;;;;;;16.88;45.77;100311.94;5133218;28;19934;-86
2023/03/15 11:03:02;;;;;;;;;;;;;;;17.65;44.86;100321.34;5131048;28;20410;-87
2023/03/15 11:05:50;;;;;;;;;;;;;;;17.71;43.29;100317.25;5131888;28;19927;-87
2023/03/15 11:08:19;;;;;;;;;;;;;;;17.62;41.90;100324.00;5133208;28;19927;-86
2023/03/15 11:10:54;;;;;;;;;;;;;;;17.63;42.18;100328.38;5133127;28;19924;-86
2023/03/15 11:13:24;;;;;;;;;;;;;;;17.45;39.82;100334.81;5133136;28;19935;-86
2023/03/15 11:15:52;;;;;;;;;;;;;;;17.82;40.14;100344.53;5134085;28;20297;-87
2023/03/15 11:18:25;;;;;;;;;;;;;;;18.11;40.43;100345.69;5135158;28;19928;-85
2023/03/15 11:20:54;;;;;;;;;;;;;;;18.11;39.63;100378.91;5133853;28;20404;-87
2023/03/15 11:23:41;;;;;;;;;;;;;;;16.45;53.66;100376.31;5133066;28;19950;-84
2023/03/15 11:26:15;;;;;;;;;;;;;;;15.24;57.45;100380.06;5132237;28;19935;-86
2023/03/15 11:29:00;;;;;;;;;;;;;;;15.14;57.47;100389.41;5132529;27;19930;-85
2023/03/15 11:31:30;;;;;;;;;;;;;;;14.49;59.64;100412.44;5136514;27;19923;-87
2023/03/15 11:33:57;;;;;;;;;;;;;;;14.50;60.09;100408.53;5136941;27;19923;-86
2023/03/15 11:36:27;;;;;;;;;;;;;;;14.13;58.38;100404.94;5137328;27;19923;-87
2023/03/15 11:38:54;;;;;;;;;;;;;;;13.84;59.20;100404.16;5135464;27;20377;-86
2023/03/15 11:41:22;;;;;;;;;;;;;;;13.72;57.58;100397.56;5136930;27;19924;-86
2023/03/15 11:43:52;;;;;;;;;;;;;;;13.69;61.36;100390.75;5154340;27;19927;-86
2023/03/15 11:46:29;;;;;;;;;;;;;;;14.08;58.94;100400.38;5138437;27;19923;-86
2023/03/15 11:49:00;;;;;;;;;;;;;;;14.42;59.34;100391.94;5157517;27;19923;-86
2023/03/15 11:51:31;;;;;;;;;;;;;;;14.68;59.84;100419.72;5157402;27;19923;-86
2023/03/15 11:54:03;;;;;;;;;;;;;;;14.05;60.05;100408.44;5157445;27;19931;-86
2023/03/15 11:56:42;;;;;;;;;;;;;;;14.24;60.66;100411.06;5157605;27;19930;-86
2023/03/15 11:59:18;;;;;;;;;;;;;;;14.15;60.66;100413.72;5157093;27;19927;-86
2023/03/15 12:01:50;;;;;;;;;;;;;;;14.22;57.67;100418.78;5157196;27;19930;-87
2023/03/15 12:04:24;;;;;;;;;;;;;;;14.35;59.06;100411.63;5137746;27;19923;-87
2023/03/15 12:06:53;;;;;;;;;;;;;;;14.73;58.90;100411.31;5157089;27;20399;-86
2023/03/15 12:09:35;;;;;;;;;;;;;;;14.64;58.07;100404.94;5157034;27;19934;-87
2023/03/15 12:12:04;;;;;;;;;;;;;;;14.81;58.03;100403.47;5156953;27;19927;-86
2023/03/15 12:14:32;;;;;;;;;;;;;;;14.67;58.25;100390.53;5156963;27;20292;-86
2023/03/15 12:17:19;;;;;;;;;;;;;;;14.68;58.33;100386.66;5156869;27;19923;-86
2023/03/15 12:19:47;;;;;;;;;;;;;;;14.93;57.97;100386.34;5156991;27;19923;-87
2023/03/15 12:22:16;;;;;;;;;;;;;;;15.17;58.02;100389.56;5157056;27;19923;-86
2023/03/15 12:24:46;;;;;;;;;;;;;;;15.07;58.96;100380.78;5157099;27;19931;-86
2023/03/15 12:27:16;;;;;;;;;;;;;;;14.75;58.25;100389.00;5156732;27;19934;-86
2023/03/15 12:29:44;;;;;;;;;;;;;;;14.73;57.76;100405.00;5156789;27;20373;-86
2023/03/15 12:32:16;;;;;;;;;;;;;;;14.51;60.14;100404.66;5138545;27;19927;-86
2023/03/15 12:34:52;;;;;;;;;;;;;;;14.74;57.64;100415.75;5138416;27;19923;-86
2023/03/15 12:37:22;;;;;;;;;;;;;;;14.70;57.54;100414.69;5156708;27;20300;-86
2023/03/15 12:39:59;;;;;;;;;;;;;;;14.55;58.36;100410.34;5156328;27;19938;-86
2023/03/15 12:42:32;;;;;;;;;;;;;;;14.54;58.52;100413.41;5156351;27;19927;-85
2023/03/15 12:45:23;;;;;;;;;;;;;;;14.64;58.76;100408.50;5156274;27;19931;-86
2023/03/15 12:47:50;;;;;;;;;;;;;;;14.90;56.67;100402.41;5143376;27;19923;-86
2023/03/15 12:50:37;;;;;;;;;;;;;;;14.83;58.58;100406.72;5156298;27;19923;-86
2023/03/15 12:53:14;;;;;;;;;;;;;;;15.08;57.19;100397.00;5156233;27;19934;-88
2023/03/15 12:55:42;;;;;;;;;;;;;;;14.94;59.08;100388.81;5156309;27;19933;-87
2023/03/15 12:58:15;;;;;;;;;;;;;;;15.16;57.93;100387.16;5135244;27;19938;-84
2023/03/15 13:00:43;;;;;;;;;;;;;;;15.70;57.91;100377.97;5147604;27;19934;-84
2023/03/15 13:03:15;;;;;;;;;;;;;;;15.69;56.75;100379.91;5155761;27;20372;-85
2023/03/15 13:05:51;;;;;;;;;;;;;;;15.81;54.16;100389.53;5136398;27;20316;-85
2023/03/15 13:08:42;;;;;;;;;;;;;;;15.85;56.46;100382.25;5134805;27;19931;-86